Omaha, Georgia
Current Conditions -  °F | °C
As of 2:58 AM on Friday 28 Nov 2014 (Local Time) from KLSF Reporting Station
Clear Clear  
Wind Chill: 29°   Ceiling: Unl
Heat Index: 29°   Visibility: 10mi
Dew Point: 27°   Wind: 0mph
Humidity: 92%   Direction: NA
Pressure: 30.41"   Gusts: NA
Location:  32.15°N, 85.01°W
Report Text: KLSF 280758Z AUTO 00000KT 10SM CLR M01/M03 A3041 RMK AO2 SLP302 T10141026 $
Loading
Personal Weather Stations






























Interactive Weather Map New forecast layout! Learn more

10-Day Weather Forecast

Advertisements
Track Severe Weather on mobile